Sheregesh, Russia
Current Conditions -  °F | °C
As of 5:30 AM on Thursday 23 Oct 2014 (Local Time) from UNAA Reporting Station
Overcast Overcast  
Wind Chill: 32°   Ceiling: 6600
Heat Index: 36°   Visibility: 6mi
Dew Point: 30°   Wind: 4mph
Humidity: 81%   Direction: 160°SSE
Pressure: 30"   Gusts: NA
Location:  52.95°N, 88.03°E
Report Text: UNAA 222230Z 16002MPS 9999 SCT026CB OVC066 02/M01 Q1016 NOSIGRMK QFE740 20190060
Loading
Personal Weather Stations






























Interactive Weather Map
Tropical Storm Tracking
New forecast layout! Learn more

10-Day Weather Forecast

Advertisements
Track Severe Weather on mobile